Time;durP1;ratioP1;P1;durP2;ratioP2;P2;SDS_P1;SDS_P2;PMS_P1;PMS_P2;Temp;Humidity;BMP_temperature;BMP_pressure;BME280_temperature;BME280_humidity;BME280_pressure;Samples;Min_cycle;Max_cycle;Signal;HPM_P1;HPM_P2
2022/09/03 00:02:22;;;;;;;1.13;1.07;;;12.10;99.90;11.60;101187;;;;554515;255;24250;-79
2022/09/03 00:05:00;;;;;;;3.90;1.30;;;12.20;99.90;11.60;101189;;;;554553;255;24138;-80
2022/09/03 00:08:08;;;;;;;1.00;0.80;;;12.20;99.90;11.70;101183;;;;554133;255;24170;-78
2022/09/03 00:10:53;;;;;;;0.87;0.87;;;12.30;99.90;11.70;101183;;;;562020;255;24244;-78
2022/09/03 00:13:24;;;;;;;1.70;1.10;;;12.30;99.90;11.80;101190;;;;528517;266;35841;-77
2022/09/03 00:15:56;;;;;;;1.37;1.10;;;12.40;99.90;11.80;101181;;;;554177;255;24150;-78
2022/09/03 00:18:21;;;;;;;0.67;0.67;;;12.50;99.90;11.90;101185;;;;553247;255;25192;-79
2022/09/03 00:20:52;;;;;;;3.40;0.90;;;12.60;99.90;11.90;101182;;;;552979;255;24138;-77
2022/09/03 00:23:22;;;;;;;0.70;0.70;;;12.50;99.90;12.00;101183;;;;553552;251;24170;-78
2022/09/03 00:25:59;;;;;;;1.10;1.07;;;12.60;99.90;12.00;101184;;;;561562;252;24148;-80
2022/09/03 00:28:30;;;;;;;2.10;1.10;;;12.70;99.90;12.10;101183;;;;552422;255;24166;-80
2022/09/03 00:31:13;;;;;;;0.97;0.83;;;12.70;99.90;12.10;101173;;;;561254;255;24172;-81
2022/09/03 00:33:41;;;;;;;2.57;1.17;;;12.70;99.90;12.20;101180;;;;553556;255;24150;-80
2022/09/03 00:36:17;;;;;;;1.47;1.10;;;12.80;99.90;12.20;101179;;;;560835;255;24203;-82
2022/09/03 00:38:48;;;;;;;0.80;0.80;;;12.80;99.90;12.20;101182;;;;553394;255;24150;-82
2022/09/03 00:41:25;;;;;;;1.33;0.83;;;12.80;99.90;12.20;101191;;;;552888;255;24185;-78
2022/09/03 00:44:08;;;;;;;1.40;1.30;;;12.80;99.90;12.20;101191;;;;552822;255;24161;-78
2022/09/03 00:46:40;;;;;;;1.10;1.10;;;12.80;99.90;12.20;101189;;;;548658;255;24154;-81
2022/09/03 00:49:27;;;;;;;1.40;1.30;;;12.90;99.90;12.30;101190;;;;553052;255;24205;-76
2022/09/03 00:52:33;;;;;;;0.87;0.87;;;12.90;99.90;12.30;101186;;;;553384;255;24194;-81
2022/09/03 00:55:44;;;;;;;0.80;0.80;;;12.90;99.90;12.30;101189;;;;561861;252;24138;-79
2022/09/03 00:58:47;;;;;;;1.00;0.80;;;12.90;99.90;12.30;101197;;;;553735;255;24159;-77
2022/09/03 01:01:22;;;;;;;1.53;1.00;;;13.00;99.90;12.40;101196;;;;553850;255;24162;-79
2022/09/03 01:04:14;;;;;;;2.20;1.07;;;13.00;99.90;12.40;101196;;;;552907;255;24158;-81
2022/09/03 01:06:44;;;;;;;1.60;0.90;;;13.00;99.90;12.40;101198;;;;553218;255;24181;-80
2022/09/03 01:09:49;;;;;;;1.63;0.90;;;13.00;99.90;12.40;101206;;;;553272;255;24171;-78
2022/09/03 01:12:32;;;;;;;3.30;1.07;;;13.00;99.90;12.40;101210;;;;554003;253;24159;-78
2022/09/03 01:15:06;;;;;;;0.73;0.73;;;13.00;99.90;12.40;101223;;;;551927;255;24155;-78
2022/09/03 01:17:59;;;;;;;1.03;0.80;;;13.10;99.90;12.40;101230;;;;561816;255;24142;-77
2022/09/03 01:20:44;;;;;;;1.53;1.00;;;13.00;99.90;12.40;101238;;;;553714;255;24141;-78
2022/09/03 01:24:09;;;;;;;2.63;0.97;;;12.90;99.90;12.30;101236;;;;553343;255;24219;-77
2022/09/03 01:27:04;;;;;;;0.93;0.90;;;12.90;99.90;12.10;101227;;;;553780;255;24166;-77
2022/09/03 01:29:59;;;;;;;0.80;0.80;;;12.60;99.90;12.00;101232;;;;553267;255;24180;-80
2022/09/03 01:32:47;;;;;;;2.90;1.00;;;12.50;99.90;11.90;101223;;;;553573;255;25214;-77
2022/09/03 01:35:39;;;;;;;1.07;1.00;;;12.40;99.90;11.80;101225;;;;553632;255;24148;-76
2022/09/03 01:38:17;;;;;;;0.80;0.80;;;12.20;99.90;11.70;101227;;;;553323;255;24182;-75
2022/09/03 01:44:08;;;;;;;0.43;0.43;;;12.10;99.90;11.50;101224;;;;553786;255;24154;-76
2022/09/03 01:46:45;;;;;;;1.60;1.30;;;12.00;99.90;11.40;101230;;;;561556;252;24131;-77
2022/09/03 01:49:25;;;;;;;3.20;0.90;;;11.90;99.90;11.30;101224;;;;553256;255;24139;-79
2022/09/03 01:51:57;;;;;;;1.07;0.97;;;11.90;99.90;11.20;101226;;;;552830;255;24174;-79
2022/09/03 01:54:43;;;;;;;1.60;1.00;;;11.70;99.90;11.10;101227;;;;550222;255;24185;-79
2022/09/03 01:57:33;;;;;;;1.67;0.80;;;11.60;99.90;11.00;101228;;;;553769;255;24155;-77
2022/09/03 02:00:07;;;;;;;3.90;0.87;;;11.60;99.90;10.90;101229;;;;553275;255;24182;-77
2022/09/03 02:02:39;;;;;;;2.10;0.73;;;11.50;99.90;10.90;101222;;;;561343;252;24161;-79
2022/09/03 02:05:13;;;;;;;1.87;1.10;;;11.50;99.90;10.90;101211;;;;552125;255;24186;-77
2022/09/03 02:08:01;;;;;;;2.73;0.97;;;11.40;99.90;10.80;101207;;;;561159;252;24147;-78
2022/09/03 02:10:30;;;;;;;1.13;0.90;;;11.40;99.90;10.80;101201;;;;553431;255;24163;-79
2022/09/03 02:13:00;;;;;;;1.03;0.93;;;11.30;99.90;10.70;101201;;;;552948;255;24170;-77
2022/09/03 02:15:29;;;;;;;4.33;1.20;;;11.30;99.90;10.70;101200;;;;561387;252;25205;-79
2022/09/03 02:17:55;;;;;;;1.30;1.03;;;11.30;99.90;10.70;101211;;;;552429;255;24165;-77
2022/09/03 02:20:23;;;;;;;1.60;1.30;;;11.30;99.90;10.70;101220;;;;552764;255;24170;-78
2022/09/03 02:22:53;;;;;;;3.97;1.33;;;11.30;99.90;10.70;101211;;;;553040;255;24170;-77
2022/09/03 02:25:19;;;;;;;1.83;1.60;;;11.30;99.90;10.70;101212;;;;549205;255;46603;-78
2022/09/03 02:27:47;;;;;;;1.20;1.10;;;11.20;99.90;10.70;101206;;;;554366;255;24143;-79
2022/09/03 02:30:16;;;;;;;1.70;0.90;;;11.20;99.90;10.70;101205;;;;562266;252;24165;-80
2022/09/03 02:32:43;;;;;;;4.53;1.67;;;11.20;99.90;10.70;101199;;;;561860;251;24177;-78
2022/09/03 02:35:11;;;;;;;1.20;1.07;;;11.30;99.90;10.70;101208;;;;553933;255;24147;-77
2022/09/03 02:37:42;;;;;;;1.63;1.40;;;11.20;99.90;10.70;101213;;;;553974;255;24167;-78
2022/09/03 02:40:09;;;;;;;4.97;1.00;;;11.30;99.90;10.70;101212;;;;553738;255;24163;-78
2022/09/03 02:42:35;;;;;;;2.23;0.97;;;11.30;99.90;10.70;101211;;;;562073;255;24148;-80
2022/09/03 02:45:09;;;;;;;1.20;1.07;;;11.30;99.90;10.70;101202;;;;554006;251;24147;-80
2022/09/03 02:47:37;;;;;;;0.93;0.93;;;11.30;99.90;10.70;101204;;;;562458;255;24144;-80
2022/09/03 02:50:09;;;;;;;1.30;1.20;;;11.30;99.90;10.70;101202;;;;554242;255;24140;-80
2022/09/03 02:52:33;;;;;;;2.20;1.07;;;11.30;99.90;10.70;101214;;;;544377;259;24137;-78
2022/09/03 02:55:01;;;;;;;4.37;1.37;;;11.30;99.90;10.80;101201;;;;555991;254;24140;-80
2022/09/03 02:57:29;;;;;;;2.13;1.10;;;11.40;99.90;10.80;101201;;;;553701;255;24143;-76
2022/09/03 02:59:57;;;;;;;2.47;1.57;;;11.40;99.90;10.70;101198;;;;553438;255;24160;-78
2022/09/03 03:02:29;;;;;;;2.20;1.53;;;11.40;99.90;10.70;101206;;;;553357;255;24161;-80
2022/09/03 03:04:56;;;;;;;1.70;1.60;;;11.40;99.90;10.70;101204;;;;552727;255;24192;-78
2022/09/03 03:07:25;;;;;;;1.50;1.33;;;11.30;99.90;10.70;101192;;;;552438;255;24183;-78
2022/09/03 03:09:49;;;;;;;1.83;1.73;;;11.30;99.90;10.70;101193;;;;552998;255;24156;-80
2022/09/03 03:12:18;;;;;;;1.20;1.20;;;11.30;99.90;10.70;101199;;;;553536;255;24185;-79
2022/09/03 03:14:45;;;;;;;1.90;1.80;;;11.30;99.90;10.70;101202;;;;561785;255;24152;-81
2022/09/03 03:17:13;;;;;;;2.03;1.73;;;11.30;99.90;10.70;101196;;;;553448;255;24148;-78
2022/09/03 03:19:41;;;;;;;3.03;1.70;;;11.30;99.90;10.80;101201;;;;553346;255;24161;-79
2022/09/03 03:22:09;;;;;;;1.97;1.57;;;11.40;99.90;10.80;101207;;;;553385;255;24156;-79
2022/09/03 03:24:37;;;;;;;1.97;1.80;;;11.50;99.90;10.90;101198;;;;553308;255;24146;-79
2022/09/03 03:27:07;;;;;;;2.50;1.70;;;11.50;99.90;10.90;101207;;;;553884;255;24193;-81
2022/09/03 03:29:33;;;;;;;1.50;1.40;;;11.50;99.90;10.80;101198;;;;553682;255;24166;-81
2022/09/03 03:32:01;;;;;;;1.47;1.37;;;11.50;99.90;10.80;101205;;;;553742;255;24199;-82
2022/09/03 03:34:29;;;;;;;1.43;1.33;;;11.40;99.90;10.80;101206;;;;561855;255;24146;-82
2022/09/03 03:36:56;;;;;;;1.50;1.40;;;11.40;99.90;10.80;101206;;;;555035;255;24142;-82
2022/09/03 03:39:24;;;;;;;1.87;1.60;;;11.40;99.90;10.80;101213;;;;555268;255;24157;-81
2022/09/03 03:41:52;;;;;;;2.10;1.83;;;11.40;99.90;10.80;101219;;;;554920;255;24170;-78
2022/09/03 03:44:20;;;;;;;3.30;2.00;;;11.40;99.90;10.70;101215;;;;554640;255;24216;-81
2022/09/03 03:46:48;;;;;;;1.50;1.40;;;11.40;99.90;10.70;101216;;;;554533;255;24178;-82
2022/09/03 03:49:16;;;;;;;1.23;1.10;;;11.30;99.90;10.70;101221;;;;554412;255;24124;-79
2022/09/03 03:51:44;;;;;;;1.63;1.23;;;11.30;99.90;10.70;101214;;;;554337;255;24152;-79
2022/09/03 03:54:12;;;;;;;1.27;1.13;;;11.20;99.90;10.60;101213;;;;554293;255;24163;-81
2022/09/03 03:56:40;;;;;;;2.23;1.30;;;11.20;99.90;10.50;101207;;;;554486;255;24177;-81
2022/09/03 03:59:08;;;;;;;1.27;1.17;;;11.10;99.90;10.50;101212;;;;554232;255;24149;-81
2022/09/03 04:01:36;;;;;;;2.17;0.83;;;11.10;99.90;10.50;101213;;;;553999;255;24153;-78
2022/09/03 04:04:04;;;;;;;3.97;1.80;;;11.10;99.90;10.40;101207;;;;554075;255;24146;-80
2022/09/03 04:06:32;;;;;;;2.67;1.20;;;11.00;99.90;10.40;101208;;;;554618;255;24161;-82
2022/09/03 04:09:00;;;;;;;1.10;1.00;;;11.00;99.90;10.30;101208;;;;554865;255;24135;-79
2022/09/03 04:11:28;;;;;;;1.90;1.70;;;10.90;99.90;10.20;101211;;;;550100;255;35531;-80
2022/09/03 04:13:56;;;;;;;1.23;1.23;;;10.90;99.90;10.20;101204;;;;554796;255;24187;-80
2022/09/03 04:16:30;;;;;;;2.73;1.53;;;10.90;99.90;10.20;101213;;;;554506;255;24161;-81
2022/09/03 04:18:55;;;;;;;1.30;1.30;;;10.80;99.90;10.20;101208;;;;554039;255;24146;-79
2022/09/03 04:21:25;;;;;;;1.37;1.20;;;10.80;99.90;10.30;101208;;;;554353;255;25190;-81
2022/09/03 04:23:51;;;;;;;1.47;1.20;;;10.90;99.90;10.30;101205;;;;553989;255;24149;-81
2022/09/03 04:26:21;;;;;;;1.10;1.00;;;10.90;99.90;10.30;101204;;;;554304;255;24148;-80
2022/09/03 04:28:50;;;;;;;2.73;1.27;;;11.00;99.90;10.30;101202;;;;554007;255;24165;-78
2022/09/03 04:31:18;;;;;;;1.13;1.13;;;10.90;99.90;10.30;101195;;;;554591;255;24155;-79
2022/09/03 04:33:46;;;;;;;1.10;1.10;;;11.00;99.90;10.30;101197;;;;554014;255;24151;-81
2022/09/03 04:36:16;;;;;;;1.30;1.20;;;10.90;99.90;10.30;101202;;;;554176;255;24190;-81
2022/09/03 04:38:44;;;;;;;2.73;0.93;;;10.90;99.90;10.30;101205;;;;554764;255;24229;-80
2022/09/03 04:41:13;;;;;;;1.23;1.17;;;10.90;99.90;10.30;101209;;;;554743;255;24161;-78
2022/09/03 04:43:43;;;;;;;4.83;1.23;;;10.90;99.90;10.30;101206;;;;553991;255;24157;-80
2022/09/03 04:46:11;;;;;;;1.33;1.03;;;10.90;99.90;10.30;101203;;;;553720;251;24146;-79
2022/09/03 04:48:39;;;;;;;1.17;0.70;;;10.90;99.90;10.30;101206;;;;555014;255;24144;-77
2022/09/03 04:51:08;;;;;;;1.10;1.10;;;10.90;99.90;10.30;101213;;;;554414;255;24146;-77
2022/09/03 04:53:37;;;;;;;1.90;1.10;;;10.90;99.90;10.30;101212;;;;554027;255;24324;-78
2022/09/03 04:56:17;;;;;;;0.90;0.90;;;10.90;99.90;10.30;101213;;;;554390;255;24163;-78
2022/09/03 04:58:44;;;;;;;5.70;1.30;;;10.90;99.90;10.40;101215;;;;553912;255;24139;-79
2022/09/03 05:01:15;;;;;;;1.10;1.03;;;11.00;99.90;10.60;101215;;;;553537;255;24145;-77
2022/09/03 05:03:48;;;;;;;0.90;0.90;;;11.20;99.90;10.80;101218;;;;554457;255;24174;-78
2022/09/03 05:06:13;;;;;;;1.90;1.00;;;11.40;99.90;10.90;101215;;;;554275;255;24153;-76
2022/09/03 05:08:40;;;;;;;1.10;0.93;;;11.60;99.90;11.10;101220;;;;554491;255;24151;-77
2022/09/03 05:11:08;;;;;;;1.13;1.07;;;11.60;99.90;11.50;101212;;;;554292;255;24133;-77
2022/09/03 05:13:35;;;;;;;1.33;1.30;;;12.00;99.90;12.30;101217;;;;553997;255;24158;-78
2022/09/03 05:16:09;;;;;;;4.37;1.33;;;12.70;99.90;13.40;101224;;;;563412;255;24152;-79
2022/09/03 05:18:38;;;;;;;3.03;1.30;;;14.70;99.90;14.30;101221;;;;553735;255;24140;-80
2022/09/03 05:21:06;;;;;;;1.00;1.00;;;16.20;99.90;16.10;101235;;;;554037;255;24155;-79
2022/09/03 05:23:41;;;;;;;2.43;1.10;;;16.20;99.90;18.30;101237;;;;553188;255;24147;-81
2022/09/03 05:26:08;;;;;;;0.70;0.70;;;18.40;99.90;20.20;101241;;;;553770;255;24154;-77
2022/09/03 05:28:39;;;;;;;2.53;0.90;;;20.50;99.90;21.50;101233;;;;553659;255;24144;-78
2022/09/03 05:31:07;;;;;;;0.90;0.80;;;22.00;99.90;21.50;101227;;;;553342;255;24155;-80
2022/09/03 05:33:38;;;;;;;0.97;0.73;;;22.30;99.90;22.70;101223;;;;553287;255;23225;-77
2022/09/03 05:36:02;;;;;;;1.03;0.77;;;23.10;96.30;23.90;101226;;;;553045;255;23167;-79
2022/09/03 05:38:34;;;;;;;1.60;0.90;;;24.40;94.40;25.00;101226;;;;553003;255;24257;-78
2022/09/03 05:41:01;;;;;;;1.43;0.90;;;25.50;91.00;26.00;101235;;;;553023;255;24129;-81
2022/09/03 05:43:29;;;;;;;2.47;0.90;;;26.50;77.90;26.50;101235;;;;553033;255;24140;-79
2022/09/03 05:46:12;;;;;;;2.57;0.67;;;27.20;76.80;27.10;101237;;;;553346;255;24124;-79
2022/09/03 05:48:42;;;;;;;0.40;0.40;;;27.80;69.20;27.70;101237;;;;553475;255;23153;-79
2022/09/03 05:51:07;;;;;;;0.63;0.63;;;28.40;63.20;28.30;101236;;;;552428;255;23158;-80
2022/09/03 05:53:35;;;;;;;4.00;0.90;;;29.00;60.50;28.60;101240;;;;553394;255;24174;-78
2022/09/03 05:56:06;;;;;;;1.00;0.53;;;29.40;58.10;29.00;101259;;;;563023;255;23172;-78
2022/09/03 05:58:34;;;;;;;0.40;0.40;;;29.80;56.40;28.90;101243;;;;553407;255;23143;-79
2022/09/03 06:01:20;;;;;;;0.40;0.40;;;29.90;56.10;28.20;101249;;;;554750;254;23152;-78
2022/09/03 06:03:47;;;;;;;0.90;0.63;;;29.40;55.50;26.40;101248;;;;554259;255;24129;-78
2022/09/03 06:06:15;;;;;;;2.83;0.70;;;28.10;57.70;25.60;101244;;;;553691;255;23201;-78
2022/09/03 06:08:43;;;;;;;2.07;0.53;;;27.00;57.50;26.00;101242;;;;554014;255;24147;-78
2022/09/03 06:11:14;;;;;;;1.83;0.60;;;26.80;59.40;26.70;101249;;;;553985;255;23145;-78
2022/09/03 06:13:39;;;;;;;1.00;0.53;;;27.20;57.20;27.20;101240;;;;553724;255;23179;-78
2022/09/03 06:16:07;;;;;;;0.40;0.40;;;27.70;56.80;27.80;101238;;;;554006;255;23145;-78
2022/09/03 06:18:35;;;;;;;0.70;0.70;;;28.30;56.00;28.70;101250;;;;553610;255;23201;-78
2022/09/03 06:21:06;;;;;;;1.37;0.63;;;29.00;55.60;29.50;101247;;;;553731;255;24160;-78
2022/09/03 06:23:31;;;;;;;0.50;0.50;;;29.90;53.90;30.70;101254;;;;553522;255;23175;-77
2022/09/03 06:26:08;;;;;;;2.93;0.70;;;31.00;50.50;29.90;101261;;;;552823;251;23145;-80
2022/09/03 06:28:37;;;;;;;0.73;0.73;;;29.80;50.20;28.40;101261;;;;552691;255;23206;-77
2022/09/03 06:31:04;;;;;;;1.90;0.50;;;29.70;50.20;26.90;101268;;;;553444;255;23150;-77
2022/09/03 06:33:32;;;;;;;0.63;0.60;;;28.50;51.50;25.60;101271;;;;553095;255;24165;-77
2022/09/03 06:36:00;;;;;;;0.63;0.63;;;27.20;53.30;24.30;101277;;;;552992;255;23164;-76
2022/09/03 06:38:32;;;;;;;1.50;0.60;;;25.80;55.40;23.20;101274;;;;561106;252;24203;-75
2022/09/03 06:41:00;;;;;;;0.63;0.63;;;23.50;59.70;22.30;101273;;;;553148;255;24155;-79
2022/09/03 06:43:27;;;;;;;1.43;0.80;;;23.40;59.70;21.90;101270;;;;553409;255;24136;-77
2022/09/03 06:45:58;;;;;;;0.70;0.70;;;22.70;62.90;22.20;101278;;;;561667;252;24250;-79
2022/09/03 06:48:27;;;;;;;0.60;0.60;;;23.60;65.00;23.60;101283;;;;553392;255;24159;-77
2022/09/03 06:50:58;;;;;;;1.77;0.83;;;25.80;59.90;26.20;101280;;;;561593;255;25190;-76
2022/09/03 06:53:26;;;;;;;0.40;0.40;;;25.70;59.80;27.30;101284;;;;553200;255;24170;-77
2022/09/03 06:55:57;;;;;;;0.50;0.50;;;27.30;57.00;28.60;101286;;;;553380;255;23158;-79
2022/09/03 06:58:24;;;;;;;0.60;0.60;;;28.50;55.10;29.90;101287;;;;553462;255;23171;-77
2022/09/03 07:00:52;;;;;;;0.70;0.70;;;30.00;53.30;31.00;101288;;;;553275;255;23172;-77
2022/09/03 07:03:20;;;;;;;1.62;0.70;;;31.20;51.40;31.80;101288;;;;553395;255;23154;-78
2022/09/03 07:05:48;;;;;;;1.45;0.70;;;32.20;51.10;33.60;101293;;;;561596;255;24167;-78
2022/09/03 07:08:16;;;;;;;2.85;1.10;;;33.70;48.50;34.80;101301;;;;553309;255;24227;-77
2022/09/03 07:10:47;;;;;;;2.20;0.70;;;34.90;47.00;35.50;101306;;;;553857;254;23144;-77
2022/09/03 07:13:15;;;;;;;0.70;0.70;;;35.90;44.80;35.70;101299;;;;554481;255;23227;-77
2022/09/03 07:15:48;;;;;;;0.60;0.50;;;36.70;43.00;36.20;101295;;;;554259;255;23250;-78
2022/09/03 07:18:16;;;;;;;1.55;0.60;;;37.10;42.80;36.60;101306;;;;553841;255;23223;-79
2022/09/03 07:20:44;;;;;;;1.70;0.93;;;37.00;42.70;37.00;101305;;;;554255;255;23154;-78
2022/09/03 07:23:15;;;;;;;0.55;0.55;;;37.50;41.20;36.80;101306;;;;554574;255;23167;-78
2022/09/03 07:25:40;;;;;;;0.77;0.47;;;37.60;40.60;36.20;101310;;;;554413;255;23147;-78
2022/09/03 07:28:08;;;;;;;0.57;0.57;;;37.30;40.60;34.90;101306;;;;554631;255;23151;-79
2022/09/03 07:30:36;;;;;;;2.37;0.70;;;36.30;41.50;34.90;101314;;;;553969;255;23228;-79
2022/09/03 07:33:06;;;;;;;0.90;0.50;;;35.90;42.00;34.80;101313;;;;553406;255;23153;-79
2022/09/03 07:35:32;;;;;;;2.08;0.60;;;35.80;42.30;35.00;101313;;;;553352;255;23163;-78
2022/09/03 07:38:00;;;;;;;0.62;0.62;;;35.70;42.30;34.70;101315;;;;553467;255;23149;-79
2022/09/03 07:40:28;;;;;;;0.45;0.45;;;35.60;41.90;35.00;101311;;;;553284;255;23161;-78
2022/09/03 07:43:02;;;;;;;24.95;3.00;;;35.60;41.90;34.60;101311;;;;553739;255;23181;-79
2022/09/03 07:45:27;;;;;;;0.85;0.62;;;35.40;42.20;34.00;101319;;;;554062;255;24186;-78
2022/09/03 07:47:55;;;;;;;1.55;0.65;;;34.90;42.20;32.00;101319;;;;553973;255;23146;-82
2022/09/03 07:50:23;;;;;;;0.98;0.60;;;33.60;43.50;30.90;101320;;;;553869;255;23177;-80
2022/09/03 07:52:59;;;;;;;0.47;0.47;;;32.20;46.00;30.10;101322;;;;554112;255;23146;-83
2022/09/03 07:55:24;;;;;;;0.45;0.30;;;31.40;46.30;29.30;101312;;;;553735;255;23160;-83
2022/09/03 07:57:55;;;;;;;0.50;0.50;;;30.50;47.70;28.30;101313;;;;553728;255;23205;-82
2022/09/03 08:00:23;;;;;;;0.70;0.70;;;29.60;48.80;27.40;101309;;;;553825;255;23193;-82
2022/09/03 08:02:51;;;;;;;0.90;0.60;;;28.70;50.00;26.30;101318;;;;553716;255;23136;-77
2022/09/03 08:05:20;;;;;;;2.43;0.70;;;27.70;51.30;25.60;101321;;;;553584;255;24159;-77
2022/09/03 08:07:50;;;;;;;1.97;0.63;;;26.80;53.20;24.80;101332;;;;553584;255;23182;-81
2022/09/03 08:10:18;;;;;;;1.03;0.53;;;26.00;54.20;24.10;101324;;;;561645;252;24180;-79
2022/09/03 08:12:43;;;;;;;1.73;0.50;;;25.10;55.70;23.50;101332;;;;553425;255;24172;-82
2022/09/03 08:15:11;;;;;;;0.87;0.50;;;24.50;56.40;23.00;101329;;;;553559;255;24132;-77
2022/09/03 08:17:38;;;;;;;0.40;0.40;;;23.90;57.60;22.30;101328;;;;553447;255;24121;-77
2022/09/03 08:20:07;;;;;;;0.53;0.50;;;23.20;58.70;21.90;101330;;;;553234;255;24139;-79
2022/09/03 08:22:36;;;;;;;0.30;0.30;;;22.70;59.70;21.30;101334;;;;562185;252;24221;-77
2022/09/03 08:25:02;;;;;;;0.40;0.40;;;22.30;59.60;20.90;101340;;;;554794;255;23239;-81
2022/09/03 08:27:34;;;;;;;0.20;0.20;;;21.80;60.50;20.60;101336;;;;554428;255;24140;-79
2022/09/03 08:29:58;;;;;;;0.53;0.53;;;21.50;61.60;20.50;101333;;;;553923;255;24160;-78
2022/09/03 08:32:26;;;;;;;0.30;0.30;;;21.20;62.30;20.90;101336;;;;553897;255;24155;-80
2022/09/03 08:34:55;;;;;;;0.43;0.40;;;22.60;60.30;22.60;101334;;;;553815;255;23204;-80
2022/09/03 08:37:26;;;;;;;2.43;0.40;;;22.60;60.20;25.50;101331;;;;553908;255;24129;-77
2022/09/03 08:39:51;;;;;;;0.30;0.30;;;27.60;52.30;27.50;101337;;;;553671;255;24213;-82
2022/09/03 08:42:56;;;;;;;0.57;0.50;;;27.50;52.20;29.80;101334;;;;553444;255;23158;-77
2022/09/03 08:45:25;;;;;;;0.40;0.40;;;29.90;49.70;32.20;101341;;;;551922;255;23168;-79
2022/09/03 08:48:03;;;;;;;0.43;0.30;;;32.80;44.90;32.50;101348;;;;561897;255;23168;-77
2022/09/03 08:50:28;;;;;;;0.43;0.43;;;33.60;42.40;30.40;101340;;;;561461;255;23180;-78
2022/09/03 08:53:08;;;;;;;0.40;0.35;;;32.40;43.00;31.10;101334;;;;553737;255;23153;-78
2022/09/03 08:55:43;;;;;;;0.90;0.30;;;32.30;44.00;32.70;101340;;;;542440;255;23161;-78
2022/09/03 08:58:19;;;;;;;0.37;0.37;;;33.50;42.50;33.40;101347;;;;553655;255;23150;-79
2022/09/03 09:00:47;;;;;;;0.30;0.30;;;35.40;40.10;34.40;101347;;;;553618;255;23149;-78
2022/09/03 09:03:30;;;;;;;0.40;0.40;;;35.90;39.90;34.70;101357;;;;553703;255;24148;-79
2022/09/03 09:06:19;;;;;;;0.95;0.45;;;35.90;39.80;35.40;101363;;;;561905;251;24250;-77
2022/09/03 09:09:24;;;;;;;0.60;0.60;;;36.60;39.30;35.70;101358;;;;561993;255;23209;-79
2022/09/03 09:11:58;;;;;;;0.47;0.47;;;37.20;38.00;35.60;101347;;;;553451;255;23197;-80
2022/09/03 09:14:48;;;;;;;0.62;0.55;;;37.30;37.80;35.70;101346;;;;553482;255;23171;-77
2022/09/03 09:17:59;;;;;;;0.40;0.40;;;37.30;37.70;36.10;101352;;;;562016;255;23155;-76
2022/09/03 09:20:48;;;;;;;0.45;0.45;;;37.50;37.70;36.60;101359;;;;562077;255;23154;-78
2022/09/03 09:23:22;;;;;;;3.62;0.50;;;38.30;37.00;36.30;101361;;;;553977;255;23150;-77
2022/09/03 09:25:50;;;;;;;0.40;0.40;;;38.50;36.10;36.30;101348;;;;554438;255;24171;-79
2022/09/03 09:28:21;;;;;;;0.32;0.30;;;38.30;36.50;36.50;101352;;;;553748;255;23140;-76
2022/09/03 09:30:48;;;;;;;0.35;0.35;;;38.40;36.50;36.50;101352;;;;553533;255;23187;-78
2022/09/03 09:33:19;;;;;;;0.60;0.40;;;38.40;36.40;36.70;101361;;;;552898;255;23193;-78
2022/09/03 09:35:44;;;;;;;0.40;0.40;;;38.50;36.80;37.00;101349;;;;563124;250;23174;-77
2022/09/03 09:38:12;;;;;;;1.73;0.50;;;38.80;36.70;37.30;101364;;;;564544;255;24194;-77
2022/09/03 09:40:43;;;;;;;0.43;0.40;;;39.00;36.10;37.20;101348;;;;554753;255;23155;-78
2022/09/03 09:43:12;;;;;;;0.85;0.60;;;39.20;35.60;37.20;101349;;;;554269;255;23165;-77
2022/09/03 09:45:43;;;;;;;3.03;0.60;;;39.20;35.60;36.80;101351;;;;562149;252;23249;-81
2022/09/03 09:48:33;;;;;;;0.85;0.73;;;38.90;35.90;36.60;101357;;;;553302;255;23160;-80
2022/09/03 09:51:03;;;;;;;0.30;0.30;;;38.90;35.70;35.70;101360;;;;553891;255;23157;-78
2022/09/03 09:53:31;;;;;;;0.82;0.62;;;38.20;36.20;34.70;101345;;;;551953;255;23170;-79
2022/09/03 09:56:01;;;;;;;0.60;0.60;;;36.00;38.40;33.40;101356;;;;553443;255;23212;-79
2022/09/03 09:58:32;;;;;;;3.80;0.80;;;36.10;39.10;34.00;101362;;;;548204;255;35516;-77
2022/09/03 10:01:14;;;;;;;2.83;0.70;;;36.10;39.00;34.70;101361;;;;553402;255;23166;-79
2022/09/03 10:03:52;;;;;;;1.87;0.80;;;36.50;38.10;35.40;101350;;;;553552;255;23156;-82
2022/09/03 10:09:11;;;;;;;2.15;0.62;;;37.10;37.40;34.60;101355;;;;548190;255;35605;-83
2022/09/03 10:11:39;;;;;;;1.50;0.55;;;37.00;37.30;32.80;101362;;;;552618;255;23163;-84
2022/09/03 10:14:13;;;;;;;6.18;1.05;;;35.50;38.60;30.80;101378;;;;552611;255;24221;-83
2022/09/03 10:16:41;;;;;;;2.65;1.05;;;33.60;40.60;28.30;101345;;;;552354;255;23179;-80
2022/09/03 10:19:11;;;;;;;5.40;1.10;;;31.00;43.00;26.90;101341;;;;552745;255;23168;-82
2022/09/03 10:21:51;;;;;;;0.60;0.60;;;29.10;45.80;25.70;101355;;;;552551;255;23207;-83
2022/09/03 10:24:38;;;;;;;1.57;0.50;;;27.50;47.90;24.60;101349;;;;560888;255;23191;-83
2022/09/03 10:27:09;;;;;;;0.50;0.50;;;26.10;49.40;23.90;101346;;;;553245;255;23224;-79
2022/09/03 10:29:39;;;;;;;0.67;0.67;;;25.00;51.80;23.20;101337;;;;553440;255;24152;-81
2022/09/03 10:32:22;;;;;;;1.30;1.00;;;24.30;53.30;22.60;101338;;;;553170;251;24180;-80
2022/09/03 10:34:58;;;;;;;0.90;0.90;;;23.60;54.80;21.80;101339;;;;561657;255;25192;-82
2022/09/03 10:37:38;;;;;;;0.83;0.60;;;22.80;55.60;21.20;101339;;;;552809;255;23271;-82
2022/09/03 10:40:19;;;;;;;1.53;1.10;;;21.70;58.70;20.90;101334;;;;549804;255;24157;-83
2022/09/03 10:42:53;;;;;;;0.80;0.80;;;21.50;59.80;21.00;101329;;;;553033;255;24267;-82
2022/09/03 10:45:52;;;;;;;0.30;0.30;;;21.50;59.80;20.80;101330;;;;553145;254;23172;-79
2022/09/03 10:48:50;;;;;;;0.60;0.60;;;21.40;58.80;20.50;101330;;;;557121;255;35467;-82
2022/09/03 10:51:29;;;;;;;1.80;1.17;;;21.00;60.80;20.30;101322;;;;553964;255;24200;-81
2022/09/03 10:54:25;;;;;;;0.93;0.40;;;20.80;61.50;20.20;101322;;;;553127;255;24162;-77
2022/09/03 10:57:14;;;;;;;0.63;0.40;;;20.60;61.60;19.80;101319;;;;561448;250;24233;-80
2022/09/03 11:00:10;;;;;;;1.70;0.50;;;20.40;61.00;19.60;101310;;;;561516;255;24173;-80
2022/09/03 11:03:02;;;;;;;0.60;0.60;;;20.20;62.00;19.50;101313;;;;553645;255;24170;-82
2022/09/03 11:05:30;;;;;;;3.00;1.73;;;20.10;64.40;19.60;101309;;;;552979;255;25223;-78
2022/09/03 11:08:01;;;;;;;0.77;0.77;;;20.10;64.40;19.80;101308;;;;552927;255;24143;-77
2022/09/03 11:10:29;;;;;;;0.40;0.40;;;20.30;64.40;19.80;101312;;;;552282;255;24161;-82
2022/09/03 11:13:06;;;;;;;0.50;0.50;;;20.30;61.70;19.50;101302;;;;552939;255;24153;-80
2022/09/03 11:15:42;;;;;;;0.40;0.40;;;20.20;64.10;19.40;101303;;;;553149;255;24178;-78
2022/09/03 11:18:41;;;;;;;1.00;0.90;;;20.00;65.70;19.30;101303;;;;552988;255;24143;-77
2022/09/03 11:21:09;;;;;;;0.30;0.30;;;19.80;66.80;19.30;101300;;;;552946;255;24154;-78
2022/09/03 11:23:37;;;;;;;0.20;0.20;;;19.80;68.10;19.20;101303;;;;552820;255;24433;-77
2022/09/03 11:26:07;;;;;;;0.40;0.40;;;19.70;66.60;19.10;101293;;;;552434;255;24151;-81
2022/09/03 11:28:54;;;;;;;0.60;0.60;;;19.60;65.60;19.10;101290;;;;551869;255;24166;-81
2022/09/03 11:31:46;;;;;;;2.13;0.60;;;19.60;67.70;19.10;101287;;;;552677;255;24172;-81
2022/09/03 11:34:27;;;;;;;0.90;0.60;;;19.60;67.70;18.70;101294;;;;560812;252;24198;-79
2022/09/03 11:36:55;;;;;;;0.60;0.57;;;19.10;68.00;18.40;101282;;;;552545;255;24154;-81
2022/09/03 11:39:32;;;;;;;1.63;0.50;;;19.00;68.70;18.40;101284;;;;552109;255;24148;-80
2022/09/03 11:42:06;;;;;;;1.53;0.60;;;18.90;69.60;18.40;101281;;;;561390;252;24228;-79
2022/09/03 11:44:39;;;;;;;1.00;0.50;;;18.90;68.90;18.30;101285;;;;552802;255;24170;-80